Meteo Giornale » Osservazioni meteo Italia » Lamezia Terme

ore: 15:50 - Osservazioni Meteo Lamezia Terme
Lat. 38° 54' N Lon. 16° 15' E Alt. 15 metri s.l.m.

sereno Europe/Rome

20 °C

Sereno

Temp. 24 Ore

10 °C

21 °C

Ovest/Sud-Ovest

18.5 Km/h

Dew point 17 °C

Umidità 82 %

Visibilità  10 Km

Il sole sorge alle ore 06:02

Il sole tramonta alle ore 19:43

Data e Ora Cielo e Fenomeni T °C DP °C Um. % Pres. hPa Vis. km Vento km/h
Oggi h: 15:50 sereno Sereno 20 17 82 1017 10 O/SO 18.5
Oggi h: 14:50 sereno Sereno 20 16 77 1018 10 O/SO 16.7
Oggi h: 13:50 sereno Sereno 20 16 77 1018 10 O 18.5
Oggi h: 12:50 sereno Sereno 21 15 68 1018 10 O/SO 11.1
Oggi h: 11:50 sereno Sereno 20 16 77 1019 10 O 13
Oggi h: 10:50 sereno Sereno 19 15 77 1019 10 O/SO 11.1
Oggi h: 09:50 sereno Sereno 19 15 77 1019 10 O/SO 9.3
Oggi h: 08:50 sereno Sereno 17 16 93 1019 10 N 1.8
Oggi h: 07:50 sereno Sereno 14 13 93 1019 10 N 5.5
Oggi h: 06:50 sereno Sereno 10 10 100 1019 10 E 7.4
Oggi h: 05:50 sereno Sereno 10 9 93 1019 10 E 7.4
Oggi h: 04:50 sereno Sereno 10 10 100 1019 6 E 7.4
Oggi h: 02:50 poco_nuvoloso Poco Nuvoloso 11 11 100 1019 6 N 5.5
Oggi h: 01:50 sereno Sereno 11 10 93 1019 6 N 5.5
Oggi h: 00:50 sereno Sereno 12 12 100 1020 6 N 1.8
Ieri h: 23:50 poco_nuvoloso Poco Nuvoloso 12 12 100 1019 6 N 3.7
Ieri h: 22:50 poco_nuvoloso Poco Nuvoloso 14 13 93 1020 6 N 3.7
Ieri h: 21:50 poco_nuvoloso Poco Nuvoloso 15 14 93 1020 8 N 0
Ieri h: 20:50 poco_nuvoloso Poco Nuvoloso 16 15 93 1019 10 O/NO 9.3
Ieri h: 19:50 poco_nuvoloso Poco Nuvoloso 17 15 88 1019 10 SO 9.3
Ieri h: 18:50 poco_nuvoloso Poco Nuvoloso 18 16 88 1019 10 SO 11.1